Time;durP1;ratioP1;P1;durP2;ratioP2;P2;SDS_P1;SDS_P2;PMS_P1;PMS_P2;Temp;Humidity;BMP_temperature;BMP_pressure;BME280_temperature;BME280_humidity;BME280_pressure;Samples;Min_cycle;Max_cycle;Signal;HPM_P1;HPM_P2
2021/09/16 00:01:24;;;;;;;0.50;0.40;;;;;20.70;101355.00;;;;5048811;28;20202;-78
2021/09/16 00:03:51;;;;;;;1.55;0.50;;;;;20.70;101361.00;;;;5059454;28;20203;-78
2021/09/16 00:06:18;;;;;;;0.88;0.52;;;;;20.70;101361.00;;;;5061072;28;20196;-78
2021/09/16 00:08:47;;;;;;;1.70;0.50;;;;;20.60;101357.00;;;;5048685;28;20206;-78
2021/09/16 00:11:14;;;;;;;1.02;0.63;;;;;20.60;101356.00;;;;5050464;28;20203;-79
2021/09/16 00:13:41;;;;;;;1.10;0.65;;;;;20.60;101358.00;;;;5059603;28;20222;-79
2021/09/16 00:16:09;;;;;;;1.40;0.50;;;;;20.60;101364.00;;;;5068544;28;20195;-79
2021/09/16 00:18:36;;;;;;;1.40;0.68;;;;;20.60;101356.00;;;;5059196;28;20191;-78
2021/09/16 00:21:03;;;;;;;3.72;0.60;;;;;20.60;101358.00;;;;5052617;28;20203;-79
2021/09/16 00:23:30;;;;;;;3.95;0.90;;;;;20.60;101358.00;;;;5049471;28;20557;-79
2021/09/16 00:25:59;;;;;;;1.23;0.65;;;;;20.60;101360.00;;;;5048448;28;20199;-79
2021/09/16 00:28:26;;;;;;;2.35;0.82;;;;;20.60;101366.00;;;;5049148;28;20218;-79
2021/09/16 00:30:53;;;;;;;1.88;0.60;;;;;20.60;101365.00;;;;5052169;28;20709;-79
2021/09/16 00:33:20;;;;;;;0.80;0.40;;;;;20.60;101369.00;;;;5049039;28;20227;-79
2021/09/16 00:35:48;;;;;;;0.68;0.55;;;;;20.60;101362.00;;;;5048646;28;20250;-78
2021/09/16 00:38:15;;;;;;;2.33;1.00;;;;;20.70;101370.00;;;;5048564;28;20701;-78
2021/09/16 00:40:42;;;;;;;1.33;0.45;;;;;20.60;101358.00;;;;5048005;28;20617;-77
2021/09/16 00:43:11;;;;;;;0.65;0.43;;;;;20.60;101358.00;;;;5048119;28;20202;-78
2021/09/16 00:45:38;;;;;;;1.98;0.52;;;;;20.60;101368.00;;;;5048870;28;20192;-78
2021/09/16 00:48:06;;;;;;;1.00;0.65;;;;;20.60;101363.00;;;;5048669;28;20192;-78
2021/09/16 00:50:36;;;;;;;1.02;0.50;;;;;20.60;101370.00;;;;5049157;28;20577;-78
2021/09/16 00:53:04;;;;;;;1.42;0.57;;;;;20.60;101363.00;;;;5048715;28;20349;-78
2021/09/16 00:55:33;;;;;;;1.33;0.77;;;;;20.60;101373.00;;;;5049914;28;20199;-78
2021/09/16 00:58:02;;;;;;;1.13;0.52;;;;;20.60;101364.00;;;;5053485;28;20604;-78
2021/09/16 01:00:31;;;;;;;1.45;0.75;;;;;20.60;101361.00;;;;5068996;28;20210;-77
2021/09/16 01:02:59;;;;;;;1.00;0.40;;;;;20.60;101361.00;;;;5056790;28;20202;-78
2021/09/16 01:05:27;;;;;;;1.33;0.82;;;;;20.60;101366.00;;;;5048198;28;20658;-78
2021/09/16 01:07:57;;;;;;;1.80;0.63;;;;;20.60;101361.00;;;;5049856;28;20290;-78
2021/09/16 01:10:24;;;;;;;1.73;0.38;;;;;20.60;101361.00;;;;5067278;28;20191;-78
2021/09/16 01:12:52;;;;;;;1.27;0.80;;;;;20.60;101348.00;;;;5063855;28;20397;-78
2021/09/16 01:15:19;;;;;;;1.20;0.68;;;;;20.50;101355.00;;;;5048770;28;20214;-79
2021/09/16 01:17:48;;;;;;;1.70;0.60;;;;;20.50;101341.00;;;;5048082;28;20203;-79
2021/09/16 01:20:16;;;;;;;2.40;0.90;;;;;20.50;101342.00;;;;5049530;28;20810;-78
2021/09/16 01:22:46;;;;;;;1.10;0.55;;;;;20.50;101357.00;;;;5048076;28;20206;-78
2021/09/16 01:25:13;;;;;;;1.00;0.60;;;;;20.50;101356.00;;;;5051235;28;20202;-78
2021/09/16 01:27:40;;;;;;;2.95;0.80;;;;;20.50;101362.00;;;;5051641;28;20206;-78
2021/09/16 01:30:09;;;;;;;2.08;0.88;;;;;20.40;101360.00;;;;5068751;28;20568;-78
2021/09/16 01:32:36;;;;;;;1.42;0.80;;;;;20.40;101351.00;;;;5046483;28;20231;-78
2021/09/16 01:35:04;;;;;;;1.48;0.73;;;;;20.40;101362.00;;;;5048372;28;20204;-79
2021/09/16 01:37:31;;;;;;;1.60;0.80;;;;;20.40;101361.00;;;;5047904;28;20199;-78
2021/09/16 01:40:00;;;;;;;1.42;0.55;;;;;20.40;101359.00;;;;5048350;28;20219;-78
2021/09/16 01:42:27;;;;;;;1.00;0.60;;;;;20.30;101363.00;;;;5045909;28;20200;-78
2021/09/16 01:44:55;;;;;;;2.03;0.65;;;;;20.30;101363.00;;;;5066630;28;20198;-78
2021/09/16 01:47:22;;;;;;;2.60;1.02;;;;;20.30;101367.00;;;;5048033;28;20196;-78
2021/09/16 01:49:49;;;;;;;0.95;0.80;;;;;20.30;101366.00;;;;5047975;28;20202;-78
2021/09/16 01:52:17;;;;;;;1.23;0.50;;;;;20.30;101367.00;;;;5047293;28;20207;-78
2021/09/16 01:54:44;;;;;;;1.33;0.70;;;;;20.30;101360.00;;;;5046800;28;20259;-78
2021/09/16 01:57:13;;;;;;;1.52;0.90;;;;;20.20;101358.00;;;;5048673;28;20207;-78
2021/09/16 01:59:40;;;;;;;1.17;0.70;;;;;20.30;101349.00;;;;5047570;28;20218;-79
2021/09/16 02:02:08;;;;;;;8.43;1.27;;;;;20.30;101348.00;;;;5046156;28;20265;-78
2021/09/16 02:04:35;;;;;;;1.55;0.68;;;;;20.30;101359.00;;;;5047287;28;20192;-78
2021/09/16 02:07:02;;;;;;;2.28;0.80;;;;;20.30;101346.00;;;;5048639;28;20223;-78
2021/09/16 02:09:29;;;;;;;2.03;0.65;;;;;20.30;101355.00;;;;5047959;28;20180;-78
2021/09/16 02:11:56;;;;;;;0.70;0.45;;;;;20.30;101355.00;;;;5049363;28;20192;-78
2021/09/16 02:14:25;;;;;;;1.42;0.70;;;;;20.30;101358.00;;;;5050521;28;20704;-78
2021/09/16 02:16:52;;;;;;;2.13;0.65;;;;;20.30;101361.00;;;;5061217;28;20272;-78
2021/09/16 02:19:20;;;;;;;1.98;0.77;;;;;20.30;101357.00;;;;5065577;28;20207;-78
2021/09/16 02:21:47;;;;;;;1.65;0.77;;;;;20.30;101360.00;;;;5051677;28;20214;-78
2021/09/16 02:24:14;;;;;;;1.13;0.57;;;;;20.30;101372.00;;;;5051139;28;20203;-78
2021/09/16 02:26:41;;;;;;;1.33;0.82;;;;;20.30;101355.00;;;;5050706;28;20206;-78
2021/09/16 02:29:08;;;;;;;1.38;0.75;;;;;20.40;101360.00;;;;5051655;28;20196;-78
2021/09/16 02:31:37;;;;;;;0.68;0.55;;;;;20.40;101355.00;;;;5050852;28;20716;-79
2021/09/16 02:34:04;;;;;;;0.75;0.68;;;;;20.40;101355.00;;;;5051040;28;20226;-78
2021/09/16 02:36:32;;;;;;;1.13;0.50;;;;;20.40;101351.00;;;;5051650;28;20198;-78
2021/09/16 02:38:59;;;;;;;0.98;0.50;;;;;20.40;101357.00;;;;5051673;28;20223;-79
2021/09/16 02:41:27;;;;;;;2.47;1.00;;;;;20.40;101361.00;;;;5052356;28;20204;-79
2021/09/16 02:43:54;;;;;;;0.77;0.38;;;;;20.50;101360.00;;;;5050498;28;22172;-78
2021/09/16 02:46:21;;;;;;;4.15;0.75;;;;;20.50;101369.00;;;;5059517;28;20195;-78
2021/09/16 02:48:50;;;;;;;1.60;0.73;;;;;20.50;101370.00;;;;5051585;28;20199;-79
2021/09/16 02:51:18;;;;;;;2.38;0.82;;;;;20.50;101370.00;;;;5051277;28;20222;-78
2021/09/16 02:53:45;;;;;;;3.22;0.82;;;;;20.50;101375.00;;;;5050014;28;20230;-78
2021/09/16 02:56:12;;;;;;;1.10;0.60;;;;;20.50;101374.00;;;;5050201;28;20215;-78
2021/09/16 02:58:39;;;;;;;1.15;0.77;;;;;20.50;101378.00;;;;5050065;28;20195;-79
2021/09/16 03:01:07;;;;;;;2.15;0.85;;;;;20.50;101371.00;;;;5051195;28;20215;-78
2021/09/16 03:03:34;;;;;;;2.33;0.50;;;;;20.50;101368.00;;;;5049497;28;20191;-78
2021/09/16 03:06:02;;;;;;;1.92;0.50;;;;;20.50;101376.00;;;;5049898;28;20199;-78
2021/09/16 03:08:29;;;;;;;0.75;0.50;;;;;20.60;101370.00;;;;5051416;28;20277;-78
2021/09/16 03:10:57;;;;;;;0.95;0.32;;;;;20.60;101367.00;;;;5050357;28;20196;-78
2021/09/16 03:13:24;;;;;;;2.35;0.52;;;;;20.60;101376.00;;;;5051265;28;20230;-78
2021/09/16 03:15:51;;;;;;;1.30;0.60;;;;;20.60;101369.00;;;;5050949;28;20206;-78
2021/09/16 03:18:18;;;;;;;1.38;0.30;;;;;20.60;101372.00;;;;5050261;28;20523;-78
2021/09/16 03:20:46;;;;;;;1.13;0.47;;;;;20.60;101385.00;;;;5057432;28;20202;-78
2021/09/16 03:23:14;;;;;;;0.65;0.50;;;;;20.60;101390.00;;;;5050314;28;20237;-78
2021/09/16 03:25:41;;;;;;;3.78;0.65;;;;;20.60;101384.00;;;;5058650;28;20199;-78
2021/09/16 03:28:09;;;;;;;0.93;0.30;;;;;20.70;101387.00;;;;5050888;28;20207;-78
2021/09/16 03:30:36;;;;;;;0.50;0.22;;;;;20.70;101386.00;;;;5050603;28;20203;-78
2021/09/16 03:33:04;;;;;;;0.88;0.20;;;;;20.70;101391.00;;;;5050370;28;20291;-78
2021/09/16 03:35:31;;;;;;;1.88;0.30;;;;;20.70;101393.00;;;;5050151;28;20245;-78
2021/09/16 03:37:59;;;;;;;1.77;0.30;;;;;20.70;101400.00;;;;5050118;28;20203;-78
2021/09/16 03:40:27;;;;;;;0.68;0.17;;;;;20.70;101405.00;;;;5055983;28;20195;-78
2021/09/16 03:42:55;;;;;;;1.67;0.30;;;;;20.80;101402.00;;;;5052174;28;20218;-78
2021/09/16 03:45:22;;;;;;;2.50;0.80;;;;;20.80;101399.00;;;;5050161;28;20207;-78
2021/09/16 03:47:50;;;;;;;2.35;0.20;;;;;20.80;101397.00;;;;5053118;28;20191;-78
2021/09/16 03:50:18;;;;;;;1.25;0.40;;;;;20.80;101408.00;;;;5053391;28;20199;-78
2021/09/16 03:52:45;;;;;;;1.10;0.55;;;;;20.80;101405.00;;;;5049977;28;20196;-78
2021/09/16 03:55:12;;;;;;;1.00;0.40;;;;;20.80;101405.00;;;;5049966;28;20226;-78
2021/09/16 03:57:41;;;;;;;1.05;0.40;;;;;20.80;101404.00;;;;5049606;28;20192;-78
2021/09/16 04:00:10;;;;;;;3.10;0.47;;;;;20.90;101406.00;;;;5069267;28;20213;-79
2021/09/16 04:02:38;;;;;;;0.38;0.30;;;;;20.90;101405.00;;;;5059977;28;20187;-78
2021/09/16 04:05:06;;;;;;;0.52;0.20;;;;;20.90;101405.00;;;;5070362;28;20213;-78
2021/09/16 04:07:33;;;;;;;0.93;0.30;;;;;20.90;101403.00;;;;5066214;28;20199;-78
2021/09/16 04:10:00;;;;;;;2.05;0.50;;;;;20.90;101405.00;;;;5050007;28;20203;-78
2021/09/16 04:12:28;;;;;;;1.42;0.40;;;;;20.90;101409.00;;;;5050094;28;20192;-78
2021/09/16 04:14:56;;;;;;;0.70;0.30;;;;;20.90;101408.00;;;;5067353;28;20226;-79
2021/09/16 04:17:23;;;;;;;1.52;0.57;;;;;20.90;101411.00;;;;5049951;28;20249;-78
2021/09/16 04:19:51;;;;;;;2.20;0.30;;;;;20.90;101410.00;;;;5049309;28;20195;-78
2021/09/16 04:22:18;;;;;;;1.00;0.30;;;;;20.90;101413.00;;;;5050285;28;20195;-78
2021/09/16 04:24:45;;;;;;;1.63;0.38;;;;;20.90;101415.00;;;;5049044;28;20207;-79
2021/09/16 04:27:13;;;;;;;0.50;0.30;;;;;20.90;101417.00;;;;5050361;28;20200;-78
2021/09/16 04:29:40;;;;;;;3.53;0.38;;;;;20.90;101417.00;;;;5063481;28;20309;-78
2021/09/16 04:32:10;;;;;;;2.55;0.28;;;;;20.90;101418.00;;;;5058896;28;20557;-78
2021/09/16 04:34:37;;;;;;;1.73;0.30;;;;;20.90;101420.00;;;;5047704;28;20226;-78
2021/09/16 04:37:05;;;;;;;3.42;0.63;;;;;20.90;101420.00;;;;5048541;28;20200;-79
2021/09/16 04:39:32;;;;;;;0.68;0.20;;;;;20.90;101422.00;;;;5047383;28;20234;-79
2021/09/16 04:41:59;;;;;;;3.42;0.60;;;;;20.90;101418.00;;;;5053321;28;20208;-79
2021/09/16 04:44:27;;;;;;;2.50;0.40;;;;;20.90;101416.00;;;;5050823;28;20658;-78
2021/09/16 04:46:54;;;;;;;1.55;0.45;;;;;20.90;101421.00;;;;5047977;28;20200;-78
2021/09/16 04:49:22;;;;;;;0.50;0.30;;;;;20.90;101420.00;;;;5048805;28;20290;-77
2021/09/16 04:51:50;;;;;;;1.20;0.30;;;;;20.90;101419.00;;;;5048101;28;20794;-78
2021/09/16 04:54:17;;;;;;;0.60;0.30;;;;;21.00;101416.00;;;;5052798;28;20222;-78
2021/09/16 04:56:44;;;;;;;0.63;0.20;;;;;20.90;101422.00;;;;5054952;28;20207;-77
2021/09/16 04:59:12;;;;;;;1.48;0.40;;;;;20.90;101415.00;;;;5050711;28;20206;-78
2021/09/16 05:01:39;;;;;;;1.85;0.52;;;;;20.90;101417.00;;;;5053678;28;20673;-78
2021/09/16 05:04:06;;;;;;;2.30;0.60;;;;;20.90;101419.00;;;;5048457;28;20206;-78
2021/09/16 05:06:35;;;;;;;0.75;0.28;;;;;20.90;101426.00;;;;5053933;28;20665;-78
2021/09/16 05:09:02;;;;;;;2.40;0.47;;;;;21.00;101416.00;;;;5066072;28;20203;-78
2021/09/16 05:11:29;;;;;;;3.58;0.60;;;;;21.00;101419.00;;;;5050804;28;20192;-78
2021/09/16 05:13:57;;;;;;;0.50;0.17;;;;;21.00;101411.00;;;;5047563;28;20219;-78
2021/09/16 05:16:24;;;;;;;4.40;0.65;;;;;21.00;101414.00;;;;5047964;28;20253;-77
2021/09/16 05:18:51;;;;;;;1.58;0.30;;;;;21.00;101413.00;;;;5047174;28;20208;-79
2021/09/16 05:21:18;;;;;;;3.58;0.50;;;;;21.00;101414.00;;;;5048527;28;20203;-77
2021/09/16 05:23:47;;;;;;;0.85;0.28;;;;;21.00;101409.00;;;;5062874;28;20203;-78
2021/09/16 05:26:14;;;;;;;4.35;0.30;;;;;21.00;101405.00;;;;5045999;28;20218;-78
2021/09/16 05:28:43;;;;;;;1.58;0.38;;;;;21.00;101416.00;;;;5046073;28;20589;-78
2021/09/16 05:31:10;;;;;;;1.50;0.47;;;;;21.00;101422.00;;;;5051465;28;20229;-78
2021/09/16 05:33:37;;;;;;;3.70;0.57;;;;;21.00;101424.00;;;;5065641;28;20203;-79
2021/09/16 05:36:05;;;;;;;0.90;0.50;;;;;21.00;101428.00;;;;5050208;28;20192;-78
2021/09/16 05:38:33;;;;;;;1.42;0.60;;;;;21.00;101428.00;;;;5059157;28;20231;-78
2021/09/16 05:41:02;;;;;;;3.15;0.57;;;;;21.00;101428.00;;;;5050161;28;20822;-79
2021/09/16 05:43:29;;;;;;;1.42;0.50;;;;;21.00;101431.00;;;;5059074;28;20198;-78
2021/09/16 05:45:56;;;;;;;0.85;0.40;;;;;21.10;101443.00;;;;5058149;28;20203;-77
2021/09/16 05:48:24;;;;;;;2.25;0.20;;;;;21.10;101442.00;;;;5067666;28;20202;-77
2021/09/16 05:50:52;;;;;;;1.83;0.52;;;;;21.10;101440.00;;;;5068194;28;20518;-77
2021/09/16 05:53:19;;;;;;;1.08;0.40;;;;;21.10;101436.00;;;;5056786;28;20203;-77
2021/09/16 05:55:46;;;;;;;0.60;0.30;;;;;21.10;101448.00;;;;5056005;28;20215;-77
2021/09/16 05:58:15;;;;;;;1.30;0.40;;;;;21.10;101442.00;;;;5057410;28;20195;-77
2021/09/16 06:00:42;;;;;;;1.30;0.50;;;;;21.10;101450.00;;;;5058412;28;20200;-77
2021/09/16 06:03:09;;;;;;;0.60;0.30;;;;;21.10;101451.00;;;;5053327;28;20200;-77
2021/09/16 06:05:36;;;;;;;3.13;0.70;;;;;21.10;101455.00;;;;5051305;28;20249;-81
2021/09/16 06:08:04;;;;;;;1.55;0.43;;;;;21.10;101455.00;;;;5050999;28;20188;-79
2021/09/16 06:10:31;;;;;;;2.38;0.50;;;;;21.10;101460.00;;;;5050106;28;20253;-78
2021/09/16 06:12:58;;;;;;;3.33;0.50;;;;;21.20;101464.00;;;;5049599;28;20195;-78
2021/09/16 06:15:27;;;;;;;0.55;0.40;;;;;21.20;101468.00;;;;5050724;28;20242;-79
2021/09/16 06:17:54;;;;;;;1.35;0.50;;;;;21.20;101478.00;;;;5049736;28;20673;-79
2021/09/16 06:20:22;;;;;;;1.20;0.38;;;;;21.20;101469.00;;;;5051103;28;20203;-79
2021/09/16 06:22:49;;;;;;;0.98;0.20;;;;;21.20;101474.00;;;;5052862;28;20200;-78
2021/09/16 06:25:17;;;;;;;2.15;0.65;;;;;21.20;101469.00;;;;5050948;28;20665;-78
2021/09/16 06:27:44;;;;;;;1.95;0.32;;;;;21.30;101473.00;;;;5049245;28;20210;-77
2021/09/16 06:30:13;;;;;;;3.30;0.70;;;;;21.30;101468.00;;;;5051023;28;20208;-77
2021/09/16 06:32:46;;;;;;;1.23;0.35;;;;;21.30;101480.00;;;;5065467;28;20230;-78
2021/09/16 06:35:13;;;;;;;2.45;0.32;;;;;21.30;101472.00;;;;5071090;28;20222;-77
2021/09/16 06:37:41;;;;;;;0.38;0.30;;;;;21.40;101480.00;;;;5053941;28;20203;-78
2021/09/16 06:40:09;;;;;;;2.22;0.65;;;;;21.40;101476.00;;;;5070124;28;20245;-77
2021/09/16 06:42:37;;;;;;;2.10;0.43;;;;;21.40;101474.00;;;;5069316;28;20203;-77
2021/09/16 06:45:06;;;;;;;5.32;0.75;;;;;21.40;101485.00;;;;5069073;28;20897;-77
2021/09/16 06:47:34;;;;;;;0.75;0.30;;;;;21.40;101486.00;;;;5068416;28;20202;-77
2021/09/16 06:50:02;;;;;;;0.60;0.38;;;;;21.40;101491.00;;;;5049243;28;20203;-78
2021/09/16 06:52:30;;;;;;;1.73;0.38;;;;;21.50;101491.00;;;;5048872;28;20211;-77
2021/09/16 06:54:58;;;;;;;1.88;0.30;;;;;21.50;101489.00;;;;5048564;28;20233;-78
2021/09/16 06:57:25;;;;;;;1.30;0.50;;;;;21.50;101489.00;;;;5049233;28;20298;-77
2021/09/16 06:59:52;;;;;;;3.30;0.55;;;;;21.50;101490.00;;;;5049777;28;20462;-77
2021/09/16 07:02:19;;;;;;;1.20;0.30;;;;;21.50;101490.00;;;;5051346;28;20198;-78
2021/09/16 07:04:47;;;;;;;1.00;0.63;;;;;21.50;101496.00;;;;5057864;28;20190;-78
2021/09/16 07:07:15;;;;;;;2.03;0.40;;;;;21.50;101494.00;;;;5050252;28;20414;-78
2021/09/16 07:09:42;;;;;;;1.95;0.30;;;;;21.50;101489.00;;;;5052243;28;20199;-77
2021/09/16 07:12:10;;;;;;;1.70;0.40;;;;;21.60;101493.00;;;;5050114;28;20215;-78
2021/09/16 07:14:37;;;;;;;1.85;0.55;;;;;21.60;101492.00;;;;5049805;28;20230;-78
2021/09/16 07:17:05;;;;;;;1.95;0.50;;;;;21.60;101496.00;;;;5050208;28;20210;-78
2021/09/16 07:19:32;;;;;;;1.40;0.70;;;;;21.70;101493.00;;;;5049206;28;20261;-77
2021/09/16 07:21:59;;;;;;;0.98;0.40;;;;;21.70;101496.00;;;;5052533;28;20592;-78
2021/09/16 07:24:28;;;;;;;1.27;0.40;;;;;21.70;101494.00;;;;5070118;28;20202;-78
2021/09/16 07:26:55;;;;;;;2.70;0.77;;;;;21.80;101502.00;;;;5069806;28;20203;-78
2021/09/16 07:29:24;;;;;;;2.30;0.40;;;;;21.80;101496.00;;;;5069656;28;20206;-78
2021/09/16 07:31:52;;;;;;;2.83;0.43;;;;;21.90;101500.00;;;;5069230;28;20219;-78
2021/09/16 07:34:20;;;;;;;4.22;1.05;;;;;21.90;101503.00;;;;5069455;28;20218;-77
2021/09/16 07:36:48;;;;;;;1.33;0.40;;;;;22.00;101501.00;;;;5069071;28;20203;-77
2021/09/16 07:39:18;;;;;;;0.95;0.60;;;;;22.00;101494.00;;;;5064073;28;20227;-77
2021/09/16 07:41:47;;;;;;;1.70;0.50;;;;;22.10;101499.00;;;;5048812;28;20357;-77
2021/09/16 07:44:15;;;;;;;0.82;0.40;;;;;22.20;101498.00;;;;5049718;28;20192;-77
2021/09/16 07:46:43;;;;;;;0.88;0.32;;;;;22.20;101501.00;;;;5049237;28;20199;-77
2021/09/16 07:49:10;;;;;;;1.80;0.50;;;;;22.30;101507.00;;;;5050251;28;20213;-78
2021/09/16 07:51:37;;;;;;;5.03;0.80;;;;;22.40;101506.00;;;;5049015;28;20724;-77
2021/09/16 07:54:04;;;;;;;1.27;0.50;;;;;22.50;101510.00;;;;5048894;28;20668;-78
2021/09/16 07:56:32;;;;;;;0.65;0.50;;;;;22.50;101509.00;;;;5050148;28;20231;-78
2021/09/16 07:59:00;;;;;;;1.90;0.40;;;;;22.50;101515.00;;;;5049161;28;20204;-77
2021/09/16 08:01:27;;;;;;;1.85;0.68;;;;;22.60;101520.00;;;;5049505;28;20207;-78
2021/09/16 08:03:55;;;;;;;0.55;0.40;;;;;22.70;101516.00;;;;5062069;28;20199;-78
2021/09/16 08:06:22;;;;;;;3.00;0.85;;;;;22.70;101524.00;;;;5060527;28;20223;-78
2021/09/16 08:08:49;;;;;;;1.05;0.50;;;;;22.80;101518.00;;;;5049009;28;20219;-77
2021/09/16 08:11:17;;;;;;;1.42;0.30;;;;;22.80;101523.00;;;;5048831;28;20257;-78
2021/09/16 08:13:44;;;;;;;1.48;0.50;;;;;22.90;101523.00;;;;5057496;28;20207;-78
2021/09/16 08:16:13;;;;;;;1.48;0.32;;;;;22.90;101525.00;;;;5069120;28;20233;-77
2021/09/16 08:18:40;;;;;;;2.30;0.40;;;;;23.00;101525.00;;;;5069185;28;20229;-77
2021/09/16 08:21:07;;;;;;;1.75;0.63;;;;;23.00;101527.00;;;;5056497;28;20210;-77
2021/09/16 08:23:35;;;;;;;2.10;0.50;;;;;23.10;101520.00;;;;5048832;28;20199;-78
2021/09/16 08:26:02;;;;;;;1.52;0.40;;;;;23.20;101522.00;;;;5049170;28;20196;-78
2021/09/16 08:28:30;;;;;;;1.15;0.50;;;;;23.30;101524.00;;;;5048893;28;20196;-78
2021/09/16 08:30:57;;;;;;;1.17;0.55;;;;;23.40;101533.00;;;;5048694;28;20534;-77
2021/09/16 08:33:25;;;;;;;1.17;0.57;;;;;23.40;101543.00;;;;5048688;28;20724;-78
2021/09/16 08:35:53;;;;;;;1.08;0.40;;;;;23.50;101542.00;;;;5050764;28;20233;-78
2021/09/16 08:38:20;;;;;;;3.58;0.50;;;;;23.60;101551.00;;;;5068437;28;20234;-77
2021/09/16 08:40:47;;;;;;;2.08;0.32;;;;;23.60;101545.00;;;;5068244;28;20198;-77
2021/09/16 08:43:15;;;;;;;2.38;0.55;;;;;23.70;101552.00;;;;5064838;28;20199;-78
2021/09/16 08:45:42;;;;;;;2.47;0.55;;;;;23.70;101549.00;;;;5047579;28;20195;-77
2021/09/16 08:48:09;;;;;;;2.25;0.50;;;;;23.80;101556.00;;;;5060577;28;20203;-78
2021/09/16 08:50:38;;;;;;;1.17;0.50;;;;;23.80;101557.00;;;;5067974;28;20203;-77
2021/09/16 08:53:06;;;;;;;0.90;0.30;;;;;23.80;101565.00;;;;5068474;28;20221;-78
2021/09/16 08:55:34;;;;;;;2.20;0.52;;;;;23.90;101557.00;;;;5068343;28;20233;-77
2021/09/16 08:58:03;;;;;;;1.77;0.40;;;;;23.90;101550.00;;;;5068114;28;20218;-78
2021/09/16 09:00:32;;;;;;;0.68;0.47;;;;;24.00;101563.00;;;;5068026;28;20207;-78
2021/09/16 09:03:00;;;;;;;0.95;0.25;;;;;24.00;101562.00;;;;5062572;28;20191;-77
2021/09/16 09:05:29;;;;;;;1.63;0.52;;;;;24.10;101556.00;;;;5062113;28;20199;-77
2021/09/16 09:08:00;;;;;;;1.42;0.47;;;;;24.10;101559.00;;;;5065728;28;20199;-77
2021/09/16 09:10:49;;;;;;;1.52;0.75;;;;;24.10;101563.00;;;;5068203;28;20221;-77
2021/09/16 09:13:19;;;;;;;2.25;0.88;;;;;24.30;101558.00;;;;5063378;28;20202;-77
2021/09/16 09:15:48;;;;;;;1.55;0.50;;;;;24.50;101560.00;;;;5067406;28;20700;-77
2021/09/16 09:18:18;;;;;;;1.45;0.57;;;;;24.60;101559.00;;;;5067940;28;20202;-77
2021/09/16 09:21:02;;;;;;;1.90;0.52;;;;;24.60;101561.00;;;;5064660;28;20636;-78
2021/09/16 09:23:33;;;;;;;2.20;0.40;;;;;24.80;101559.00;;;;5047274;28;20548;-78
2021/09/16 09:26:18;;;;;;;1.83;0.63;;;;;24.90;101565.00;;;;5047852;28;20661;-77
2021/09/16 09:28:45;;;;;;;1.13;0.50;;;;;25.00;101571.00;;;;5047202;28;20202;-78
2021/09/16 09:31:16;;;;;;;2.85;0.68;;;;;25.00;101572.00;;;;5047695;28;20221;-77
2021/09/16 09:33:44;;;;;;;2.00;0.52;;;;;25.10;101565.00;;;;5047673;28;20192;-78
2021/09/16 09:36:15;;;;;;;2.03;0.70;;;;;25.00;101572.00;;;;5048494;28;20238;-77
2021/09/16 09:38:52;;;;;;;1.55;0.43;;;;;25.00;101567.00;;;;5059461;28;20231;-78
2021/09/16 09:41:31;;;;;;;2.92;0.73;;;;;25.10;101576.00;;;;5047257;28;20705;-77
2021/09/16 09:44:07;;;;;;;2.30;0.85;;;;;25.20;101584.00;;;;5047559;28;20206;-77
2021/09/16 09:46:40;;;;;;;0.98;0.50;;;;;25.20;101582.00;;;;5047145;28;20759;-78
2021/09/16 09:49:09;;;;;;;2.38;0.52;;;;;25.30;101581.00;;;;5048252;28;20227;-78
2021/09/16 09:51:38;;;;;;;0.60;0.30;;;;;25.40;101585.00;;;;5046574;28;20203;-77
2021/09/16 09:54:29;;;;;;;1.17;0.50;;;;;25.40;101577.00;;;;5047736;28;20210;-78
2021/09/16 09:57:03;;;;;;;1.88;0.73;;;;;25.60;101585.00;;;;5047706;28;20642;-77
2021/09/16 09:59:57;;;;;;;2.05;0.68;;;;;25.60;101578.00;;;;5048881;28;20207;-78
2021/09/16 10:02:26;;;;;;;2.58;0.52;;;;;25.70;101579.00;;;;5047988;28;20291;-77
2021/09/16 10:04:54;;;;;;;2.50;0.60;;;;;25.70;101573.00;;;;5054258;28;20191;-78
2021/09/16 10:07:34;;;;;;;1.30;0.73;;;;;25.60;101585.00;;;;5067419;28;20199;-77
2021/09/16 10:10:06;;;;;;;1.67;0.50;;;;;25.60;101573.00;;;;5067836;28;20187;-78
2021/09/16 10:12:34;;;;;;;1.90;0.50;;;;;25.70;101582.00;;;;5060304;28;20590;-78
2021/09/16 10:15:01;;;;;;;0.98;0.40;;;;;25.70;101586.00;;;;5047604;28;20208;-77
2021/09/16 10:17:29;;;;;;;2.08;0.50;;;;;25.80;101580.00;;;;5047865;28;20230;-78
2021/09/16 10:19:56;;;;;;;3.80;0.88;;;;;25.90;101574.00;;;;5047742;28;20214;-78
2021/09/16 10:22:24;;;;;;;0.77;0.50;;;;;26.00;101573.00;;;;5047680;28;20207;-78
2021/09/16 10:24:54;;;;;;;3.20;1.02;;;;;25.90;101583.00;;;;5048115;28;20594;-78
2021/09/16 10:27:34;;;;;;;0.60;0.47;;;;;25.90;101580.00;;;;5049172;28;20200;-78
2021/09/16 10:30:42;;;;;;;0.80;0.52;;;;;25.90;101581.00;;;;5047657;28;20696;-78
2021/09/16 10:33:13;;;;;;;2.17;0.50;;;;;26.00;101589.00;;;;5047927;28;20870;-78
2021/09/16 10:35:43;;;;;;;0.82;0.65;;;;;26.10;101587.00;;;;5049119;28;20693;-78
2021/09/16 10:38:23;;;;;;;1.25;0.52;;;;;26.20;101593.00;;;;5051208;28;20520;-78
2021/09/16 10:41:09;;;;;;;0.65;0.60;;;;;26.40;101597.00;;;;5051116;28;20199;-78
2021/09/16 10:43:37;;;;;;;2.67;0.50;;;;;26.50;101596.00;;;;5050770;28;20657;-78
2021/09/16 10:46:29;;;;;;;2.50;0.57;;;;;26.40;101597.00;;;;5051279;28;20208;-78
2021/09/16 10:49:19;;;;;;;1.67;0.47;;;;;26.50;101605.00;;;;5050770;28;20207;-77
2021/09/16 10:51:51;;;;;;;1.15;0.50;;;;;26.50;101600.00;;;;5050502;28;20188;-77
2021/09/16 10:54:35;;;;;;;2.13;0.50;;;;;26.40;101600.00;;;;5051721;28;20199;-77
2021/09/16 10:57:05;;;;;;;2.55;0.50;;;;;26.60;101614.00;;;;5050555;28;20223;-77
2021/09/16 11:00:04;;;;;;;0.50;0.40;;;;;26.50;101606.00;;;;5050432;28;20196;-77
2021/09/16 11:03:15;;;;;;;1.55;0.32;;;;;26.60;101604.00;;;;5050357;28;20214;-78
2021/09/16 11:06:04;;;;;;;1.10;0.60;;;;;26.70;101606.00;;;;5051167;28;20207;-78
2021/09/16 11:09:02;;;;;;;0.70;0.50;;;;;26.70;101600.00;;;;5050358;28;20677;-78
2021/09/16 11:11:49;;;;;;;0.70;0.40;;;;;26.70;101604.00;;;;5051239;28;20199;-78
2021/09/16 11:14:27;;;;;;;1.60;0.60;;;;;26.80;101592.00;;;;5050537;28;20322;-79
2021/09/16 11:16:55;;;;;;;1.67;0.68;;;;;27.00;101599.00;;;;5050246;28;20234;-76
2021/09/16 11:19:22;;;;;;;1.90;0.70;;;;;27.00;101593.00;;;;5051119;28;20203;-76
2021/09/16 11:22:00;;;;;;;3.05;0.50;;;;;26.90;101598.00;;;;5049922;28;20208;-77
2021/09/16 11:24:33;;;;;;;0.50;0.50;;;;;26.90;101613.00;;;;5050295;28;20200;-77
2021/09/16 11:27:01;;;;;;;0.55;0.40;;;;;26.90;101607.00;;;;5050302;28;20685;-77
2021/09/16 11:29:43;;;;;;;2.20;0.60;;;;;26.80;101616.00;;;;5070663;28;20655;-77
2021/09/16 11:32:11;;;;;;;2.72;0.65;;;;;26.90;101614.00;;;;5070442;28;20210;-77
2021/09/16 11:34:50;;;;;;;2.40;0.50;;;;;26.80;101608.00;;;;5069751;28;20206;-77
2021/09/16 11:37:22;;;;;;;1.25;0.93;;;;;26.80;101605.00;;;;5065318;28;20231;-77
2021/09/16 11:39:58;;;;;;;1.00;0.60;;;;;26.70;101612.00;;;;5050202;28;20246;-77
2021/09/16 11:42:26;;;;;;;1.05;0.50;;;;;26.70;101614.00;;;;5050108;28;20195;-76
2021/09/16 11:45:12;;;;;;;1.50;0.75;;;;;26.50;101602.00;;;;5049883;28;20214;-77
2021/09/16 11:47:43;;;;;;;1.02;0.55;;;;;26.60;101603.00;;;;5047829;28;20670;-77
2021/09/16 11:50:21;;;;;;;0.90;0.50;;;;;26.60;101599.00;;;;5050056;28;20669;-78
2021/09/16 11:52:53;;;;;;;0.70;0.50;;;;;26.60;101607.00;;;;5049752;28;20256;-77
2021/09/16 11:55:21;;;;;;;2.55;0.70;;;;;26.50;101608.00;;;;5050585;28;20218;-77
2021/09/16 11:58:00;;;;;;;1.17;0.75;;;;;26.40;101605.00;;;;5056037;28;20234;-78
2021/09/16 12:00:35;;;;;;;1.13;0.60;;;;;26.40;101609.00;;;;5069175;28;20203;-78
2021/09/16 12:03:04;;;;;;;1.38;0.57;;;;;26.40;101604.00;;;;5068728;28;20289;-77
2021/09/16 12:05:43;;;;;;;0.70;0.50;;;;;26.30;101601.00;;;;5068797;28;20282;-77
2021/09/16 12:08:13;;;;;;;0.70;0.50;;;;;26.30;101609.00;;;;5069356;28;20199;-78
2021/09/16 12:10:44;;;;;;;1.17;0.57;;;;;26.30;101609.00;;;;5068694;28;20203;-77
2021/09/16 12:13:14;;;;;;;0.95;0.85;;;;;26.30;101607.00;;;;5048605;28;20657;-76
2021/09/16 12:15:43;;;;;;;1.40;0.88;;;;;26.20;101604.00;;;;5048522;28;20192;-76
2021/09/16 12:18:11;;;;;;;1.48;0.70;;;;;26.20;101612.00;;;;5049293;28;20199;-76
2021/09/16 12:20:40;;;;;;;1.75;0.70;;;;;26.20;101604.00;;;;5048105;28;20215;-77